Time;durP1;ratioP1;P1;durP2;ratioP2;P2;SDS_P1;SDS_P2;PMS_P1;PMS_P2;Temp;Humidity;BMP_temperature;BMP_pressure;BME280_temperature;BME280_humidity;BME280_pressure;Samples;Min_cycle;Max_cycle;Signal;HPM_P1;HPM_P2
2023/09/20 00:02:01;;;;;;;1.98;1.00;;;15.30;99.90;;;;;;4990842;28;20022;-74
2023/09/20 00:04:36;;;;;;;2.92;1.27;;;15.30;99.90;;;;;;4992449;28;20579;-74
2023/09/20 00:07:02;;;;;;;3.42;1.35;;;15.30;99.90;;;;;;4992785;28;20038;-75
2023/09/20 00:09:30;;;;;;;3.10;0.82;;;15.20;99.90;;;;;;4989826;28;20031;-75
2023/09/20 00:11:56;;;;;;;3.28;1.08;;;15.20;99.90;;;;;;4990286;28;20043;-75
2023/09/20 00:14:22;;;;;;;1.90;1.15;;;15.20;99.90;;;;;;4993970;28;20026;-76
2023/09/20 00:16:50;;;;;;;3.08;1.13;;;15.20;99.90;;;;;;4992494;28;20018;-76
2023/09/20 00:19:16;;;;;;;3.08;1.10;;;15.20;99.90;;;;;;4994273;28;20092;-76
2023/09/20 00:21:46;;;;;;;2.00;1.38;;;15.20;99.90;;;;;;4989930;28;20030;-76
2023/09/20 00:24:16;;;;;;;3.08;1.00;;;15.20;99.90;;;;;;5007985;28;20081;-74
2023/09/20 00:26:45;;;;;;;4.13;1.40;;;15.10;99.90;;;;;;4988285;28;20030;-74
2023/09/20 00:29:17;;;;;;;2.03;1.05;;;15.10;99.90;;;;;;4987735;28;20073;-75
2023/09/20 00:31:46;;;;;;;3.03;1.20;;;15.20;99.90;;;;;;4991465;28;20030;-77
2023/09/20 00:34:17;;;;;;;2.92;1.05;;;15.10;99.90;;;;;;4992831;28;20485;-76
2023/09/20 00:36:46;;;;;;;3.92;1.10;;;15.10;99.90;;;;;;4989941;28;20028;-77
2023/09/20 00:39:13;;;;;;;1.63;1.02;;;15.10;99.90;;;;;;4994344;28;20097;-75
2023/09/20 00:41:39;;;;;;;3.92;0.93;;;15.10;99.90;;;;;;4994830;28;20037;-74
2023/09/20 00:44:05;;;;;;;3.45;1.17;;;15.10;99.90;;;;;;4991892;28;20030;-77
2023/09/20 00:46:31;;;;;;;2.65;1.25;;;15.10;99.90;;;;;;4995777;28;20105;-75
2023/09/20 00:48:57;;;;;;;4.95;1.33;;;15.00;99.90;;;;;;4995901;28;20130;-76
2023/09/20 00:51:26;;;;;;;1.90;1.10;;;15.00;99.90;;;;;;4995082;28;20053;-76
2023/09/20 00:53:54;;;;;;;2.20;1.10;;;15.00;99.90;;;;;;4992953;28;20030;-75
2023/09/20 00:56:20;;;;;;;4.05;1.17;;;15.00;99.90;;;;;;4994606;28;20038;-76
2023/09/20 00:58:53;;;;;;;2.17;1.05;;;15.00;99.90;;;;;;4994594;28;20014;-76
2023/09/20 01:01:18;;;;;;;3.55;1.00;;;15.00;99.90;;;;;;4994392;28;20034;-75
2023/09/20 01:03:47;;;;;;;3.45;0.98;;;15.00;99.90;;;;;;4995176;28;20023;-76
2023/09/20 01:06:17;;;;;;;3.05;1.45;;;14.90;99.90;;;;;;4995123;28;20078;-76
2023/09/20 01:08:58;;;;;;;2.35;1.33;;;14.90;99.90;;;;;;4995617;28;20406;-75
2023/09/20 01:11:24;;;;;;;3.15;1.45;;;14.90;99.90;;;;;;4995589;28;20022;-76
2023/09/20 01:13:56;;;;;;;2.10;0.95;;;14.90;99.90;;;;;;4995888;28;20076;-76
2023/09/20 01:16:21;;;;;;;4.03;1.25;;;14.90;99.90;;;;;;4994965;28;20065;-76
2023/09/20 01:18:48;;;;;;;1.75;1.13;;;14.80;99.90;;;;;;5002086;28;20034;-76
2023/09/20 01:21:13;;;;;;;3.75;1.10;;;14.80;99.90;;;;;;4993145;28;20080;-76
2023/09/20 01:23:49;;;;;;;2.13;1.10;;;14.80;99.90;;;;;;4994974;28;20034;-76
2023/09/20 01:26:16;;;;;;;2.50;1.20;;;14.80;99.90;;;;;;4995270;28;20030;-75
2023/09/20 01:28:48;;;;;;;1.77;0.90;;;14.70;99.90;;;;;;4994820;28;20037;-76
2023/09/20 01:31:13;;;;;;;2.25;1.10;;;14.80;99.90;;;;;;5009885;28;20034;-76
2023/09/20 01:33:39;;;;;;;1.88;0.90;;;14.80;99.90;;;;;;4994941;28;20133;-75
2023/09/20 01:36:05;;;;;;;3.15;1.15;;;14.70;99.90;;;;;;4993390;28;20073;-75
2023/09/20 01:38:30;;;;;;;1.85;1.10;;;14.70;99.90;;;;;;4994819;28;20045;-76
2023/09/20 01:40:57;;;;;;;1.13;0.80;;;14.70;99.90;;;;;;4993514;28;20036;-76
2023/09/20 01:43:24;;;;;;;2.42;1.00;;;14.70;99.90;;;;;;4995126;28;20022;-75
2023/09/20 01:45:55;;;;;;;3.40;1.00;;;14.70;99.90;;;;;;4994324;28;20022;-75
2023/09/20 01:48:22;;;;;;;2.67;1.00;;;14.70;99.90;;;;;;4995558;28;20030;-76
2023/09/20 01:50:50;;;;;;;2.47;1.20;;;14.60;99.90;;;;;;4995211;28;20533;-76
2023/09/20 01:53:18;;;;;;;2.92;1.00;;;14.70;99.90;;;;;;5009385;28;20100;-76
2023/09/20 01:55:48;;;;;;;1.40;0.95;;;14.70;99.90;;;;;;4993579;28;20085;-76
2023/09/20 01:58:14;;;;;;;2.10;1.08;;;14.70;99.90;;;;;;4993605;28;20026;-76
2023/09/20 02:00:43;;;;;;;2.05;1.23;;;14.60;99.90;;;;;;4993108;28;20488;-75
2023/09/20 02:03:18;;;;;;;1.92;1.08;;;14.60;99.90;;;;;;4993404;28;20026;-76
2023/09/20 02:05:47;;;;;;;4.25;1.15;;;14.50;99.90;;;;;;4993494;28;20500;-76
2023/09/20 02:08:13;;;;;;;1.90;1.02;;;14.60;99.90;;;;;;4991756;28;20050;-76
2023/09/20 02:10:39;;;;;;;3.75;1.10;;;14.60;99.90;;;;;;4993803;28;20477;-76
2023/09/20 02:13:06;;;;;;;2.05;0.93;;;14.50;99.90;;;;;;4997991;28;20098;-75
2023/09/20 02:15:36;;;;;;;2.42;0.80;;;14.50;99.90;;;;;;4996849;28;20499;-77
2023/09/20 02:18:05;;;;;;;4.25;1.10;;;14.50;99.90;;;;;;4997542;28;20430;-77
2023/09/20 02:20:50;;;;;;;1.88;1.15;;;14.50;99.90;;;;;;4996330;28;20080;-76
2023/09/20 02:23:18;;;;;;;2.95;1.10;;;14.50;99.90;;;;;;4988549;28;20049;-77
2023/09/20 02:25:50;;;;;;;5.75;1.45;;;14.50;99.90;;;;;;4990707;28;20106;-77
2023/09/20 02:28:16;;;;;;;2.53;1.00;;;14.50;99.90;;;;;;4989489;28;20030;-77
2023/09/20 02:30:42;;;;;;;2.92;1.30;;;14.40;99.90;;;;;;4997056;28;20026;-77
2023/09/20 02:33:08;;;;;;;1.63;1.10;;;14.40;99.90;;;;;;4992125;28;20497;-77
2023/09/20 02:35:37;;;;;;;1.50;0.95;;;14.40;99.90;;;;;;4996400;28;20121;-76
2023/09/20 02:38:06;;;;;;;2.75;1.08;;;14.40;99.90;;;;;;5011214;28;20026;-76
2023/09/20 02:40:33;;;;;;;5.68;1.40;;;14.40;99.90;;;;;;4996318;28;20027;-76
2023/09/20 02:42:59;;;;;;;2.97;0.93;;;14.40;99.90;;;;;;4995330;28;20034;-76
2023/09/20 02:45:27;;;;;;;2.30;1.00;;;14.40;99.90;;;;;;4993950;28;20050;-76
2023/09/20 02:47:54;;;;;;;2.40;1.20;;;14.40;99.90;;;;;;4987245;28;20041;-76
2023/09/20 02:50:24;;;;;;;2.85;0.90;;;14.40;99.90;;;;;;4987090;28;20041;-76
2023/09/20 02:52:53;;;;;;;2.70;1.17;;;14.40;99.90;;;;;;4986688;28;20748;-76
2023/09/20 02:55:24;;;;;;;3.03;1.33;;;14.40;99.90;;;;;;4989993;28;20390;-76
2023/09/20 02:57:54;;;;;;;2.92;1.00;;;14.40;99.90;;;;;;4983652;28;20440;-76
2023/09/20 03:00:27;;;;;;;2.58;1.20;;;14.40;99.90;;;;;;4987677;28;20439;-75
2023/09/20 03:02:55;;;;;;;2.33;1.20;;;14.30;99.90;;;;;;4992100;28;20062;-76
2023/09/20 03:05:29;;;;;;;3.63;1.40;;;14.30;99.90;;;;;;5005652;28;20212;-76
2023/09/20 03:07:56;;;;;;;2.60;1.38;;;14.30;99.90;;;;;;4989662;28;20446;-76
2023/09/20 03:10:28;;;;;;;6.13;1.48;;;14.30;99.90;;;;;;5005002;28;20061;-76
2023/09/20 03:12:57;;;;;;;2.83;1.10;;;14.30;99.90;;;;;;4991262;28;20058;-77
2023/09/20 03:15:27;;;;;;;2.30;1.20;;;14.30;99.90;;;;;;4990064;28;20022;-75
2023/09/20 03:18:02;;;;;;;3.17;1.30;;;14.30;99.90;;;;;;4989962;28;20792;-75
2023/09/20 03:20:34;;;;;;;3.08;1.30;;;14.30;99.90;;;;;;5005368;28;20085;-76
2023/09/20 03:23:09;;;;;;;1.80;1.10;;;14.20;99.90;;;;;;4990941;28;20029;-77
2023/09/20 03:25:40;;;;;;;3.65;1.60;;;14.20;99.90;;;;;;4991256;28;20130;-77
2023/09/20 03:28:08;;;;;;;2.28;1.25;;;14.20;99.90;;;;;;4990527;28;20027;-76
2023/09/20 03:30:34;;;;;;;2.58;1.25;;;14.20;99.90;;;;;;5007905;28;20026;-76
2023/09/20 03:33:00;;;;;;;2.65;1.20;;;14.10;99.90;;;;;;4993355;28;20062;-76
2023/09/20 03:35:27;;;;;;;2.42;1.20;;;14.10;99.90;;;;;;4989279;28;20030;-76
2023/09/20 03:37:53;;;;;;;2.88;1.20;;;14.10;99.90;;;;;;4992349;28;20568;-76
2023/09/20 03:40:19;;;;;;;1.88;0.90;;;14.10;99.90;;;;;;4991495;28;20032;-76
2023/09/20 03:42:46;;;;;;;5.90;1.40;;;14.10;99.90;;;;;;4992388;28;20112;-76
2023/09/20 03:45:14;;;;;;;1.45;1.00;;;14.00;99.90;;;;;;4992992;28;20030;-76
2023/09/20 03:47:53;;;;;;;4.70;1.23;;;14.00;99.90;;;;;;4990479;28;21161;-76
2023/09/20 03:50:19;;;;;;;1.58;0.85;;;14.00;99.90;;;;;;4992327;28;20900;-76
2023/09/20 03:52:48;;;;;;;3.60;1.42;;;14.00;99.90;;;;;;4989529;28;20037;-76
2023/09/20 03:55:14;;;;;;;2.10;1.10;;;13.90;99.90;;;;;;4992271;28;20060;-75
2023/09/20 03:57:43;;;;;;;1.67;1.00;;;13.90;99.90;;;;;;5006728;28;20397;-76
2023/09/20 04:00:28;;;;;;;5.55;1.40;;;13.90;99.90;;;;;;4988821;28;20031;-76
2023/09/20 04:02:58;;;;;;;2.47;1.05;;;13.90;99.90;;;;;;4989276;28;20456;-75
2023/09/20 04:05:31;;;;;;;3.60;1.40;;;13.90;99.90;;;;;;4989372;28;20141;-75
2023/09/20 04:07:59;;;;;;;5.18;1.60;;;13.90;99.90;;;;;;4987919;28;20374;-74
2023/09/20 04:10:26;;;;;;;2.28;1.00;;;13.90;99.90;;;;;;4989221;28;20077;-75
2023/09/20 04:12:52;;;;;;;2.97;1.48;;;13.90;99.90;;;;;;4990297;28;20436;-76
2023/09/20 04:15:20;;;;;;;3.55;1.70;;;13.90;99.90;;;;;;4990982;28;20030;-76
2023/09/20 04:17:48;;;;;;;2.60;1.30;;;13.90;99.90;;;;;;4990936;28;20477;-76
2023/09/20 04:20:19;;;;;;;3.13;1.67;;;13.90;99.90;;;;;;4995502;28;20032;-75
2023/09/20 04:22:51;;;;;;;2.88;1.38;;;13.80;99.90;;;;;;4988744;28;20026;-76
2023/09/20 04:25:17;;;;;;;4.72;1.40;;;13.90;99.90;;;;;;4988689;28;20058;-76
2023/09/20 04:27:43;;;;;;;3.88;1.33;;;13.90;99.90;;;;;;4988635;28;20038;-76
2023/09/20 04:30:13;;;;;;;4.25;1.70;;;13.80;99.90;;;;;;4998769;28;20034;-75
2023/09/20 04:32:42;;;;;;;2.35;1.50;;;13.80;99.90;;;;;;4997589;28;20078;-75
2023/09/20 04:35:07;;;;;;;4.40;1.75;;;13.80;99.90;;;;;;5010578;28;20064;-76
2023/09/20 04:37:33;;;;;;;2.70;1.25;;;13.80;99.90;;;;;;4986314;28;20074;-76
2023/09/20 04:39:59;;;;;;;2.03;1.30;;;13.80;99.90;;;;;;4992704;28;20401;-76
2023/09/20 04:42:35;;;;;;;3.53;1.45;;;13.80;99.90;;;;;;4990981;28;20049;-76
2023/09/20 04:45:06;;;;;;;1.98;1.30;;;13.80;99.90;;;;;;4990585;28;20437;-75
2023/09/20 04:47:38;;;;;;;5.07;1.63;;;13.70;99.90;;;;;;4988052;28;20065;-76
2023/09/20 04:50:11;;;;;;;3.58;1.40;;;13.70;99.90;;;;;;4990450;28;20033;-76
2023/09/20 04:52:41;;;;;;;6.07;1.58;;;13.70;99.90;;;;;;4988155;28;20023;-75
2023/09/20 04:55:13;;;;;;;3.13;1.35;;;13.70;99.90;;;;;;4976451;28;20023;-75
2023/09/20 04:57:46;;;;;;;2.42;1.30;;;13.70;99.90;;;;;;4985107;28;20080;-75
2023/09/20 05:00:15;;;;;;;3.88;2.15;;;13.70;99.90;;;;;;4980051;28;20037;-76
2023/09/20 05:02:50;;;;;;;2.00;1.42;;;13.70;99.90;;;;;;4988778;28;20037;-76
2023/09/20 05:05:16;;;;;;;6.35;1.75;;;13.70;99.90;;;;;;4989372;28;20034;-76
2023/09/20 05:07:43;;;;;;;3.35;1.50;;;13.70;99.90;;;;;;4999157;28;20551;-75
2023/09/20 05:10:09;;;;;;;2.55;1.23;;;13.70;99.90;;;;;;4999684;28;20037;-75
2023/09/20 05:12:38;;;;;;;2.75;1.35;;;13.70;99.90;;;;;;4982648;28;20034;-76
2023/09/20 05:15:04;;;;;;;3.60;1.00;;;13.70;99.90;;;;;;4987132;28;20421;-77
2023/09/20 05:17:30;;;;;;;3.22;1.45;;;13.70;99.90;;;;;;4989448;28;20014;-76
2023/09/20 05:19:58;;;;;;;5.75;1.83;;;13.70;99.90;;;;;;4992362;28;20401;-77
2023/09/20 05:22:24;;;;;;;4.20;2.20;;;13.70;99.90;;;;;;4987751;28;21129;-78
2023/09/20 05:24:50;;;;;;;5.43;1.42;;;13.70;99.90;;;;;;4992067;28;20033;-77
2023/09/20 05:27:18;;;;;;;3.95;1.30;;;13.70;99.90;;;;;;4988363;28;20030;-76
2023/09/20 05:29:44;;;;;;;5.05;1.75;;;13.70;99.90;;;;;;4988616;28;20040;-69
2023/09/20 05:32:10;;;;;;;2.83;1.25;;;13.70;99.90;;;;;;4984825;28;20033;-71
2023/09/20 05:34:39;;;;;;;3.05;1.90;;;13.80;99.90;;;;;;4986910;28;20021;-69
2023/09/20 05:37:08;;;;;;;6.20;2.05;;;13.80;99.90;;;;;;4987431;28;20481;-70
2023/09/20 05:39:36;;;;;;;3.60;1.90;;;14.00;99.90;;;;;;4988260;28;20035;-70
2023/09/20 05:42:09;;;;;;;4.97;1.80;;;14.10;99.90;;;;;;4988673;28;20034;-70
2023/09/20 05:44:36;;;;;;;3.50;1.75;;;14.10;99.90;;;;;;4992693;28;20030;-70
2023/09/20 05:47:08;;;;;;;4.75;2.10;;;14.20;99.90;;;;;;4991426;28;20038;-71
2023/09/20 05:49:33;;;;;;;4.65;2.42;;;14.30;99.90;;;;;;4991208;28;20022;-71
2023/09/20 05:51:59;;;;;;;4.50;2.30;;;14.30;99.90;;;;;;4989753;28;20031;-71
2023/09/20 05:54:25;;;;;;;4.15;2.10;;;14.30;99.90;;;;;;4989138;28;20030;-71
2023/09/20 05:56:54;;;;;;;5.80;1.80;;;14.40;99.90;;;;;;4986964;28;20393;-70
2023/09/20 05:59:19;;;;;;;5.55;1.90;;;14.40;99.90;;;;;;4988910;28;20033;-70
2023/09/20 06:01:51;;;;;;;4.35;1.30;;;14.50;99.90;;;;;;4987698;28;20481;-70
2023/09/20 06:04:20;;;;;;;4.95;1.80;;;14.50;99.90;;;;;;4988239;28;20030;-70
2023/09/20 06:06:45;;;;;;;4.93;1.58;;;14.50;99.90;;;;;;4992255;28;20054;-71
2023/09/20 06:09:14;;;;;;;3.60;1.75;;;14.50;99.90;;;;;;4990446;28;20073;-71
2023/09/20 06:11:57;;;;;;;4.32;1.55;;;14.50;99.90;;;;;;4991632;28;20029;-70
2023/09/20 06:14:23;;;;;;;2.83;1.67;;;14.60;99.90;;;;;;4991521;28;20031;-70
2023/09/20 06:16:52;;;;;;;3.65;1.90;;;14.70;99.90;;;;;;4986644;28;20280;-71
2023/09/20 06:19:21;;;;;;;6.82;1.85;;;14.70;99.90;;;;;;4989193;28;20034;-71
2023/09/20 06:21:47;;;;;;;5.55;1.70;;;14.70;99.90;;;;;;4989381;28;20081;-69
2023/09/20 06:24:13;;;;;;;4.88;1.30;;;14.80;99.90;;;;;;4989812;28;20034;-70
2023/09/20 06:26:47;;;;;;;2.55;1.40;;;14.80;99.90;;;;;;4991563;28;20041;-72
2023/09/20 06:29:16;;;;;;;4.05;1.38;;;14.90;99.90;;;;;;4987505;28;20108;-69
2023/09/20 06:31:44;;;;;;;3.35;1.23;;;15.00;99.90;;;;;;4987751;28;20022;-74
2023/09/20 06:34:12;;;;;;;3.10;1.23;;;15.00;99.90;;;;;;4998521;28;20049;-73
2023/09/20 06:36:43;;;;;;;5.28;2.05;;;15.10;99.90;;;;;;4988070;28;20030;-73
2023/09/20 06:39:12;;;;;;;5.25;2.53;;;15.10;99.90;;;;;;4988427;28;21776;-73
2023/09/20 06:41:42;;;;;;;8.70;3.53;;;15.20;99.90;;;;;;4987839;28;20397;-73
2023/09/20 06:44:08;;;;;;;9.95;3.97;;;15.20;99.90;;;;;;4988651;28;20027;-74
2023/09/20 06:46:34;;;;;;;9.02;4.47;;;15.20;99.90;;;;;;4987933;28;20026;-73
2023/09/20 06:49:12;;;;;;;7.03;4.47;;;15.30;99.90;;;;;;4989234;28;20030;-73
2023/09/20 06:51:42;;;;;;;6.18;3.95;;;15.30;99.90;;;;;;4989330;28;20076;-74
2023/09/20 06:54:08;;;;;;;6.90;3.47;;;15.30;99.90;;;;;;4984465;28;20080;-75
2023/09/20 06:56:35;;;;;;;4.85;2.80;;;15.40;99.90;;;;;;4976470;28;20376;-74
2023/09/20 06:59:06;;;;;;;4.85;2.20;;;15.40;99.90;;;;;;4988464;28;20021;-74
2023/09/20 07:01:32;;;;;;;6.30;1.45;;;15.50;99.90;;;;;;4999090;28;20019;-75
2023/09/20 07:03:58;;;;;;;4.43;1.73;;;15.60;99.90;;;;;;4988276;28;20022;-74
2023/09/20 07:06:31;;;;;;;5.47;1.52;;;15.70;99.90;;;;;;5005978;28;20496;-74
2023/09/20 07:08:57;;;;;;;2.10;1.20;;;15.80;99.90;;;;;;4992920;28;20815;-74
2023/09/20 07:11:29;;;;;;;4.57;1.85;;;15.80;99.90;;;;;;4991408;28;20026;-73
2023/09/20 07:13:55;;;;;;;6.47;1.55;;;16.00;99.90;;;;;;4993141;28;20026;-73
2023/09/20 07:16:27;;;;;;;5.72;1.52;;;16.10;99.90;;;;;;4991737;28;20018;-74
2023/09/20 07:18:55;;;;;;;4.20;1.20;;;16.20;99.90;;;;;;4989783;28;20038;-74
2023/09/20 07:21:24;;;;;;;5.07;1.73;;;16.30;99.90;;;;;;4991135;28;20052;-74
2023/09/20 07:23:49;;;;;;;3.08;1.35;;;16.40;99.90;;;;;;4989510;28;20038;-74
2023/09/20 07:26:21;;;;;;;3.92;1.50;;;16.50;99.90;;;;;;4990496;28;20034;-74
2023/09/20 07:28:47;;;;;;;3.85;1.70;;;16.50;99.90;;;;;;4993201;28;20022;-73
2023/09/20 07:31:20;;;;;;;2.90;1.58;;;16.70;99.90;;;;;;4991188;28;20038;-74
2023/09/20 07:33:46;;;;;;;5.45;1.48;;;16.80;99.90;;;;;;4988834;28;20011;-73
2023/09/20 07:36:19;;;;;;;3.47;1.67;;;16.90;99.90;;;;;;4989049;28;20027;-74
2023/09/20 07:38:48;;;;;;;2.33;1.00;;;17.00;99.90;;;;;;4987437;28;20074;-74
2023/09/20 07:41:19;;;;;;;4.35;1.60;;;17.10;99.90;;;;;;4987304;28;20135;-74
2023/09/20 07:43:45;;;;;;;3.08;1.27;;;17.10;99.90;;;;;;4992963;28;20027;-74
2023/09/20 07:46:13;;;;;;;6.07;2.67;;;17.10;99.90;;;;;;4988718;28;20089;-74
2023/09/20 07:48:46;;;;;;;7.57;2.58;;;17.20;99.90;;;;;;4988219;28;20517;-74
2023/09/20 07:51:23;;;;;;;5.85;3.20;;;17.20;99.90;;;;;;5006425;28;20027;-74
2023/09/20 07:53:53;;;;;;;7.95;3.60;;;17.20;99.90;;;;;;4989759;28;20100;-74
2023/09/20 07:56:22;;;;;;;7.60;3.47;;;17.10;99.90;;;;;;4985879;28;20046;-74
2023/09/20 07:58:55;;;;;;;6.78;3.38;;;17.10;99.90;;;;;;5004671;28;20056;-74
2023/09/20 08:01:21;;;;;;;10.88;4.60;;;17.10;99.90;;;;;;4992961;28;20508;-75
2023/09/20 08:03:58;;;;;;;7.15;3.75;;;17.10;99.90;;;;;;5005578;28;20543;-74
2023/09/20 08:06:35;;;;;;;11.55;4.22;;;17.10;99.90;;;;;;4988433;28;20065;-74
2023/09/20 08:09:01;;;;;;;6.90;3.45;;;17.10;99.90;;;;;;4988608;28;20129;-74
2023/09/20 08:11:28;;;;;;;10.20;4.65;;;17.10;99.90;;;;;;4989920;28;20019;-74
2023/09/20 08:13:55;;;;;;;12.90;4.22;;;17.00;99.90;;;;;;4992056;28;20031;-74
2023/09/20 08:16:23;;;;;;;5.45;2.90;;;17.00;99.90;;;;;;4985625;28;20041;-74
2023/09/20 08:21:38;;;;;;;5.40;2.90;;;17.00;99.90;;;;;;4984419;28;20045;-74
2023/09/20 09:00:35;;;;;;;8.00;2.63;;;18.00;99.90;;;;;;4996107;28;20038;-74
2023/09/20 09:03:03;;;;;;;6.85;2.50;;;18.10;99.90;;;;;;4996910;28;20034;-75
2023/09/20 09:05:47;;;;;;;5.50;2.38;;;18.20;99.90;;;;;;4995675;28;20148;-75
2023/09/20 09:08:13;;;;;;;;;;;18.30;99.90;;;;;;4989465;28;20384;-74
2023/09/20 09:10:51;;;;;;;7.97;2.45;;;18.40;99.90;;;;;;4993197;28;20032;-75
2023/09/20 09:13:16;;;;;;;3.38;1.77;;;18.50;99.90;;;;;;4992586;28;20080;-75
2023/09/20 09:15:44;;;;;;;3.78;2.00;;;18.60;99.90;;;;;;4992232;28;20473;-75
2023/09/20 09:18:16;;;;;;;3.67;2.25;;;18.70;99.90;;;;;;4989735;28;20069;-74
2023/09/20 09:20:49;;;;;;;3.03;1.67;;;18.80;99.90;;;;;;4993793;28;20030;-76
2023/09/20 09:23:33;;;;;;;4.35;2.03;;;18.90;99.90;;;;;;4993302;28;20026;-75
2023/09/20 09:26:02;;;;;;;4.88;2.00;;;18.90;99.90;;;;;;5006297;28;20034;-75
2023/09/20 09:28:31;;;;;;;5.40;2.35;;;19.10;99.90;;;;;;4991080;28;20066;-78
2023/09/20 09:31:08;;;;;;;4.95;2.53;;;19.10;99.90;;;;;;4994108;28;20019;-76
2023/09/20 09:33:35;;;;;;;2.88;1.33;;;19.20;99.90;;;;;;4990047;28;20031;-76
2023/09/20 09:36:02;;;;;;;3.63;1.45;;;19.20;99.90;;;;;;4988210;28;20034;-75
2023/09/20 09:38:32;;;;;;;3.33;1.55;;;19.30;99.90;;;;;;5005969;28;20425;-75
2023/09/20 09:41:04;;;;;;;4.05;1.60;;;19.40;99.90;;;;;;4990970;28;20837;-75
2023/09/20 09:43:33;;;;;;;2.00;1.55;;;19.50;99.90;;;;;;4991119;28;20041;-75
2023/09/20 09:46:07;;;;;;;2.15;1.40;;;19.60;99.90;;;;;;4989765;28;20038;-75
2023/09/20 09:48:33;;;;;;;3.35;1.70;;;19.70;99.90;;;;;;4989203;28;20034;-76
2023/09/20 09:51:04;;;;;;;3.08;1.55;;;19.80;99.90;;;;;;5007018;28;20030;-74
2023/09/20 09:53:30;;;;;;;1.92;1.10;;;19.80;99.90;;;;;;4989696;28;20401;-74
2023/09/20 09:55:57;;;;;;;5.10;1.23;;;20.00;99.90;;;;;;4985349;28;20173;-73
2023/09/20 09:58:23;;;;;;;4.18;1.10;;;20.10;99.90;;;;;;4987500;28;20022;-72
2023/09/20 10:00:55;;;;;;;3.55;1.20;;;20.20;99.90;;;;;;4988213;28;20371;-72
2023/09/20 10:03:34;;;;;;;3.63;1.40;;;20.20;99.90;;;;;;5003002;28;20077;-73
2023/09/20 10:06:08;;;;;;;2.95;1.67;;;20.30;99.90;;;;;;4989570;28;20031;-74
2023/09/20 10:08:39;;;;;;;2.60;1.40;;;20.40;99.90;;;;;;4989934;28;20367;-74
2023/09/20 10:11:06;;;;;;;4.22;1.92;;;20.40;99.90;;;;;;4990932;28;20037;-74
2023/09/20 10:13:34;;;;;;;2.65;1.23;;;20.50;99.90;;;;;;4991945;28;20241;-75
2023/09/20 10:16:05;;;;;;;2.83;1.20;;;20.60;99.90;;;;;;5003386;28;20034;-74
2023/09/20 10:18:51;;;;;;;4.60;1.15;;;20.60;99.90;;;;;;4984430;28;20032;-73
2023/09/20 10:21:27;;;;;;;3.92;1.20;;;20.60;99.90;;;;;;4994409;28;20055;-75
2023/09/20 10:24:05;;;;;;;2.92;1.10;;;20.70;99.90;;;;;;5005061;28;20049;-73
2023/09/20 10:26:37;;;;;;;3.50;1.35;;;20.70;99.90;;;;;;4989185;28;20026;-74
2023/09/20 10:29:25;;;;;;;1.85;1.20;;;20.70;99.90;;;;;;4990058;28;20041;-74
2023/09/20 10:31:54;;;;;;;3.25;1.35;;;20.90;99.90;;;;;;4986693;28;21308;-75
2023/09/20 10:34:21;;;;;;;3.88;1.50;;;21.00;99.70;;;;;;4987015;28;20022;-75
2023/09/20 10:36:51;;;;;;;3.65;1.50;;;21.00;99.50;;;;;;4990351;28;20046;-75
2023/09/20 10:39:17;;;;;;;2.45;1.23;;;21.10;99.90;;;;;;4988804;28;20034;-73
2023/09/20 10:41:51;;;;;;;3.42;1.52;;;21.20;99.90;;;;;;4991829;28;20026;-74
2023/09/20 10:44:26;;;;;;;;;;;21.20;99.90;;;;;;4990557;28;20039;-75
2023/09/20 10:46:59;;;;;;;2.05;1.02;;;21.20;99.70;;;;;;4993214;28;19937;-74
2023/09/20 10:49:53;;;;;;;2.13;1.17;;;21.30;99.70;;;;;;4990492;28;20042;-74
2023/09/20 10:52:31;;;;;;;1.67;1.02;;;21.40;99.00;;;;;;4990792;28;20750;-75
2023/09/20 10:55:18;;;;;;;4.97;1.27;;;21.40;99.00;;;;;;4990389;28;20151;-74
2023/09/20 10:57:46;;;;;;;3.65;1.50;;;21.40;98.70;;;;;;4990013;28;20019;-74
2023/09/20 11:00:14;;;;;;;4.93;1.00;;;21.40;98.70;;;;;;4986096;28;20018;-75
2023/09/20 11:02:42;;;;;;;2.95;1.25;;;21.40;98.60;;;;;;4988189;28;20046;-73
2023/09/20 11:05:11;;;;;;;2.22;0.90;;;21.40;98.60;;;;;;5001395;28;20041;-74
2023/09/20 11:08:03;;;;;;;2.63;1.25;;;21.50;98.70;;;;;;4987114;28;20033;-74
2023/09/20 11:10:32;;;;;;;2.65;1.40;;;21.50;99.00;;;;;;4991617;28;20382;-73
2023/09/20 11:12:57;;;;;;;3.20;1.95;;;21.50;99.10;;;;;;4991615;28;20020;-74
2023/09/20 11:15:24;;;;;;;2.25;1.70;;;21.50;98.70;;;;;;4993690;28;20078;-76
2023/09/20 11:17:49;;;;;;;3.13;1.48;;;21.60;98.80;;;;;;5008089;28;20030;-73
2023/09/20 11:20:17;;;;;;;2.35;1.25;;;21.60;98.80;;;;;;4991067;28;20022;-73
2023/09/20 11:22:43;;;;;;;3.45;1.02;;;21.60;98.60;;;;;;5004917;28;20494;-73
2023/09/20 11:25:09;;;;;;;5.80;1.40;;;21.70;98.60;;;;;;4985830;28;20108;-73
2023/09/20 11:27:36;;;;;;;1.38;1.00;;;21.70;98.60;;;;;;4987934;28;20034;-74
2023/09/20 11:30:10;;;;;;;2.55;1.30;;;21.80;98.30;;;;;;4993547;28;20037;-74
2023/09/20 11:32:45;;;;;;;;;;;21.90;98.10;;;;;;5005864;28;20038;-75
2023/09/20 11:35:11;;;;;;;3.13;1.45;;;21.90;97.90;;;;;;4989739;28;20513;-76
2023/09/20 11:37:41;;;;;;;3.00;1.48;;;21.90;97.60;;;;;;4993449;28;20057;-76
2023/09/20 11:40:10;;;;;;;2.08;1.15;;;22.00;97.30;;;;;;4996124;28;20482;-76
2023/09/20 11:42:39;;;;;;;2.00;1.30;;;22.00;97.00;;;;;;4996760;28;20501;-76
2023/09/20 11:45:17;;;;;;;2.95;0.90;;;22.00;97.00;;;;;;4994418;28;20034;-75
2023/09/20 11:47:43;;;;;;;4.65;1.20;;;22.10;96.50;;;;;;4993423;28;20026;-75
2023/09/20 11:50:18;;;;;;;1.90;0.93;;;22.10;96.30;;;;;;5011491;28;20077;-75
2023/09/20 11:52:49;;;;;;;1.67;1.05;;;22.20;95.90;;;;;;4994276;28;20121;-75
2023/09/20 11:55:16;;;;;;;1.15;0.80;;;22.30;95.90;;;;;;4994100;28;20034;-75
2023/09/20 11:57:42;;;;;;;4.78;1.48;;;22.20;95.80;;;;;;4988192;28;20069;-74
2023/09/20 12:00:18;;;;;;;3.60;1.25;;;22.30;95.80;;;;;;4989149;28;20030;-75
2023/09/20 12:02:45;;;;;;;2.75;1.42;;;22.30;95.60;;;;;;4988535;28;20425;-73
2023/09/20 12:05:21;;;;;;;2.38;0.90;;;22.40;95.50;;;;;;4992112;28;20022;-75
2023/09/20 12:08:00;;;;;;;1.33;0.90;;;22.40;94.90;;;;;;4991558;28;20056;-75
2023/09/20 12:10:30;;;;;;;1.35;0.98;;;22.50;94.80;;;;;;4992090;28;20133;-75
2023/09/20 12:13:01;;;;;;;1.15;0.90;;;22.50;95.10;;;;;;4995036;28;20095;-75
2023/09/20 12:15:27;;;;;;;3.30;0.80;;;22.50;95.30;;;;;;4993139;28;20511;-74
2023/09/20 12:18:13;;;;;;;2.95;1.02;;;22.50;95.10;;;;;;4993422;28;20019;-75
2023/09/20 12:20:39;;;;;;;1.40;0.93;;;22.60;94.80;;;;;;4997024;28;20162;-74
2023/09/20 12:23:14;;;;;;;2.28;0.65;;;22.60;94.60;;;;;;4996574;28;20030;-75
2023/09/20 12:25:40;;;;;;;3.88;1.20;;;22.70;94.40;;;;;;4996023;28;20038;-73
2023/09/20 12:28:06;;;;;;;1.63;0.93;;;22.90;94.20;;;;;;4995043;28;20022;-74
2023/09/20 12:30:32;;;;;;;1.50;1.00;;;22.90;94.10;;;;;;4994469;28;20077;-73
2023/09/20 12:33:07;;;;;;;1.48;0.80;;;22.90;93.90;;;;;;4992200;28;20011;-74
2023/09/20 12:35:33;;;;;;;2.00;1.20;;;22.90;93.80;;;;;;4992082;28;20026;-74
2023/09/20 12:38:02;;;;;;;2.10;1.15;;;23.00;94.00;;;;;;4991267;28;20018;-75
2023/09/20 12:40:28;;;;;;;1.45;0.88;;;23.00;93.70;;;;;;4993579;28;20030;-75
2023/09/20 12:42:58;;;;;;;1.77;1.00;;;23.00;93.70;;;;;;4992291;28;20053;-74
2023/09/20 12:45:24;;;;;;;0.70;0.68;;;22.90;93.40;;;;;;4989870;28;20022;-75
2023/09/20 12:47:53;;;;;;;1.65;0.90;;;22.90;93.60;;;;;;4993613;28;20497;-74
2023/09/20 12:50:18;;;;;;;1.80;1.00;;;22.80;93.50;;;;;;4986470;28;20035;-74
2023/09/20 12:52:47;;;;;;;3.72;0.80;;;22.90;93.40;;;;;;4992867;28;20022;-75
2023/09/20 12:55:13;;;;;;;1.80;1.13;;;22.80;93.40;;;;;;4989436;28;20117;-74
2023/09/20 12:57:40;;;;;;;1.95;0.73;;;22.90;93.20;;;;;;4992714;28;20029;-74
2023/09/20 13:00:16;;;;;;;4.22;1.20;;;22.80;93.20;;;;;;4988273;28;20049;-75
2023/09/20 13:02:45;;;;;;;0.68;0.63;;;22.90;93.40;;;;;;4990401;28;20038;-75
2023/09/20 13:05:13;;;;;;;2.20;0.73;;;22.90;93.00;;;;;;4987976;28;20085;-74
2023/09/20 13:07:48;;;;;;;2.17;0.80;;;22.90;92.80;;;;;;4991027;28;20450;-74
2023/09/20 13:10:19;;;;;;;4.53;1.75;;;23.00;92.80;;;;;;4991170;28;20030;-75
2023/09/20 13:12:51;;;;;;;1.95;1.05;;;23.00;92.90;;;;;;4988369;28;20023;-75
2023/09/20 13:15:17;;;;;;;4.10;1.20;;;23.00;93.00;;;;;;5001605;28;20030;-74
2023/09/20 13:17:51;;;;;;;3.78;1.40;;;23.00;93.00;;;;;;4986707;28;20069;-73
2023/09/20 13:20:18;;;;;;;1.73;0.80;;;23.10;93.20;;;;;;4988571;28;20022;-72
2023/09/20 13:22:52;;;;;;;2.15;0.98;;;23.20;93.00;;;;;;5000903;28;20034;-74
2023/09/20 13:25:22;;;;;;;1.30;0.85;;;23.20;93.20;;;;;;4986471;28;20117;-73
2023/09/20 13:27:48;;;;;;;3.25;1.30;;;23.20;93.00;;;;;;4983495;28;20030;-73
2023/09/20 13:30:17;;;;;;;5.53;1.10;;;23.30;93.30;;;;;;4983077;28;20038;-74
2023/09/20 13:32:46;;;;;;;4.90;1.00;;;23.40;92.80;;;;;;5005059;28;20109;-74
2023/09/20 13:35:24;;;;;;;1.10;0.82;;;23.40;93.00;;;;;;4991498;28;20029;-74
2023/09/20 13:37:50;;;;;;;2.20;0.98;;;23.40;93.40;;;;;;4984356;28;20110;-74
2023/09/20 13:40:18;;;;;;;1.77;1.02;;;23.40;93.10;;;;;;4992113;28;20529;-73